createdAt,value
2022-10-19T00:01:09.448Z,102986.69
2022-10-19T00:03:36.511Z,102980.75
2022-10-19T00:06:20.215Z,102984.44
2022-10-19T00:08:46.578Z,102970.94
2022-10-19T00:11:12.848Z,102977.81
2022-10-19T00:13:39.612Z,102974.81
2022-10-19T00:16:12.053Z,102978.13
2022-10-19T00:18:39.020Z,102975.63
2022-10-19T00:21:07.482Z,102975.28
2022-10-19T00:23:34.183Z,102974.00
2022-10-19T00:26:00.509Z,102970.31
2022-10-19T00:28:26.780Z,102981.28
2022-10-19T00:30:53.093Z,102970.63
2022-10-19T00:33:19.327Z,102972.91
2022-10-19T00:35:45.623Z,102965.78
2022-10-19T00:38:11.875Z,102977.59
2022-10-19T00:40:39.115Z,102957.63
2022-10-19T00:43:19.653Z,102973.69
2022-10-19T00:45:46.333Z,102976.53
2022-10-19T00:48:16.825Z,102973.31
2022-10-19T00:50:44.850Z,102972.72
2022-10-19T00:53:12.201Z,102959.56
2022-10-19T00:55:39.690Z,102967.75
2022-10-19T00:58:06.184Z,102958.63
2022-10-19T01:00:32.716Z,102961.44
2022-10-19T01:02:59.042Z,102953.19
2022-10-19T01:05:25.637Z,102960.72
2022-10-19T01:07:52.394Z,102961.78
2022-10-19T01:10:21.750Z,102959.53
2022-10-19T01:12:55.605Z,102959.75
2022-10-19T01:15:31.834Z,102950.97
2022-10-19T01:18:29.894Z,102960.28
2022-10-19T01:21:20.922Z,102957.81
2022-10-19T01:24:13.721Z,102966.53
2022-10-19T01:27:12.675Z,102964.84
2022-10-19T01:29:57.907Z,102958.75
2022-10-19T01:32:35.919Z,102961.25
2022-10-19T01:35:37.804Z,102948.38
2022-10-19T01:38:33.876Z,102963.50
2022-10-19T01:41:13.485Z,102959.97
2022-10-19T01:43:49.736Z,102954.06
2022-10-19T01:46:49.497Z,102959.25
2022-10-19T01:49:34.366Z,102953.13
2022-10-19T01:52:05.042Z,102949.59
2022-10-19T01:54:36.189Z,102936.94
2022-10-19T01:57:06.487Z,102941.91
2022-10-19T01:59:33.861Z,102937.78
2022-10-19T02:02:03.779Z,102933.00
2022-10-19T02:04:31.368Z,102930.41
2022-10-19T02:06:58.697Z,102929.94
2022-10-19T02:09:25.044Z,102930.84
2022-10-19T02:11:56.155Z,102942.81
2022-10-19T02:14:28.985Z,102937.72
2022-10-19T02:17:02.898Z,102928.41
2022-10-19T02:19:29.941Z,102920.81
2022-10-19T02:21:57.246Z,102931.19
2022-10-19T02:24:23.591Z,102925.28
2022-10-19T02:26:49.986Z,102923.66
2022-10-19T02:29:16.560Z,102918.78
2022-10-19T02:31:43.814Z,102920.66
2022-10-19T02:34:10.373Z,102921.69
2022-10-19T02:36:37.073Z,102922.75
2022-10-19T02:39:04.319Z,102930.53
2022-10-19T02:41:37.242Z,102925.34
2022-10-19T02:44:15.629Z,102923.69
2022-10-19T02:46:44.533Z,102922.03
2022-10-19T02:49:12.486Z,102914.78
2022-10-19T02:51:54.519Z,102908.06
2022-10-19T02:54:20.847Z,102914.78
2022-10-19T02:56:47.086Z,102919.25
2022-10-19T02:59:13.402Z,102919.78
2022-10-19T03:01:39.630Z,102927.25
2022-10-19T03:04:05.926Z,102923.00
2022-10-19T03:06:32.147Z,102933.38
2022-10-19T03:08:58.460Z,102925.69
2022-10-19T03:11:24.688Z,102934.28
2022-10-19T03:13:51.001Z,102929.34
2022-10-19T03:16:17.256Z,102928.38
2022-10-19T03:18:43.580Z,102920.22
2022-10-19T03:21:11.565Z,102941.44
2022-10-19T03:23:39.011Z,102930.38
2022-10-19T03:26:09.991Z,102923.97
2022-10-19T03:28:38.549Z,102924.69
2022-10-19T03:31:04.843Z,102925.59
2022-10-19T03:33:31.325Z,102916.63
2022-10-19T03:36:37.046Z,102918.78
2022-10-19T03:39:06.632Z,102904.69
2022-10-19T03:41:35.294Z,102918.38
2022-10-19T03:44:01.842Z,102909.28
2022-10-19T03:46:28.487Z,102919.31
2022-10-19T03:48:54.849Z,102916.81
2022-10-19T03:51:22.326Z,102917.53
2022-10-19T03:53:53.228Z,102917.44
2022-10-19T03:56:21.415Z,102913.81
2022-10-19T03:58:49.617Z,102910.28
2022-10-19T04:01:17.919Z,102908.41
2022-10-19T04:03:44.706Z,102899.69
2022-10-19T04:06:25.425Z,102914.31
2022-10-19T04:08:52.074Z,102903.94
2022-10-19T04:11:22.164Z,102902.19
2022-10-19T04:13:50.087Z,102899.38
2022-10-19T04:16:16.813Z,102884.84
2022-10-19T04:18:43.110Z,102882.50
2022-10-19T04:21:24.730Z,102897.91
2022-10-19T04:23:53.003Z,102889.84
2022-10-19T04:26:19.911Z,102895.22
2022-10-19T04:28:46.409Z,102889.50
2022-10-19T04:31:12.799Z,102886.72
2022-10-19T04:33:39.435Z,102898.00
2022-10-19T04:36:08.748Z,102899.78
2022-10-19T04:38:35.994Z,102888.78
2022-10-19T04:41:05.049Z,102888.78
2022-10-19T04:43:32.027Z,102888.78
2022-10-19T04:46:09.614Z,102883.59
2022-10-19T04:48:37.408Z,102879.25
2022-10-19T04:51:04.815Z,102886.09
2022-10-19T04:53:32.182Z,102880.00
2022-10-19T04:55:58.865Z,102881.97
2022-10-19T04:58:25.256Z,102888.84
2022-10-19T05:00:51.555Z,102892.34
2022-10-19T05:03:17.946Z,102874.97
2022-10-19T05:05:44.218Z,102897.75
2022-10-19T05:08:11.022Z,102887.81
2022-10-19T05:10:37.829Z,102896.81
2022-10-19T05:13:04.250Z,102891.13
2022-10-19T05:15:30.698Z,102903.56
2022-10-19T05:17:57.367Z,102893.59
2022-10-19T05:20:24.111Z,102904.38
2022-10-19T05:22:51.090Z,102907.91
2022-10-19T05:25:17.587Z,102895.28
2022-10-19T05:27:43.936Z,102892.78
2022-10-19T05:30:10.395Z,102893.50
2022-10-19T05:32:36.699Z,102887.09
2022-10-19T05:35:03.144Z,102898.28
2022-10-19T05:37:29.404Z,102896.75
2022-10-19T05:39:55.705Z,102892.19
2022-10-19T05:42:21.997Z,102901.31
2022-10-19T05:44:48.312Z,102897.91
2022-10-19T05:47:14.699Z,102894.69
2022-10-19T05:49:41.099Z,102897.03
2022-10-19T05:52:07.349Z,102902.75
2022-10-19T05:54:33.734Z,102903.66
2022-10-19T05:56:59.964Z,102908.44
2022-10-19T05:59:26.324Z,102911.72
2022-10-19T06:01:52.631Z,102915.56
2022-10-19T06:04:18.966Z,102906.88
2022-10-19T06:06:45.296Z,102891.44
2022-10-19T06:09:11.969Z,102901.84
2022-10-19T06:11:40.984Z,102903.53
2022-10-19T06:14:12.117Z,102900.69
2022-10-19T06:16:38.776Z,102909.00
2022-10-19T06:19:05.939Z,102897.69
2022-10-19T06:21:33.926Z,102902.84
2022-10-19T06:24:02.776Z,102901.56
2022-10-19T06:26:30.639Z,102907.38
2022-10-19T06:28:58.958Z,102912.22
2022-10-19T06:31:25.263Z,102906.78
2022-10-19T06:33:51.565Z,102910.81
2022-10-19T06:36:21.064Z,102910.09
2022-10-19T06:38:48.502Z,102911.44
2022-10-19T06:41:15.287Z,102906.34
2022-10-19T06:43:41.620Z,102919.63
2022-10-19T06:46:10.711Z,102920.09
2022-10-19T06:48:37.149Z,102914.47
2022-10-19T06:51:06.474Z,102923.22
2022-10-19T06:53:34.327Z,102918.75
2022-10-19T06:56:02.269Z,102922.47
2022-10-19T06:58:29.397Z,102936.06
2022-10-19T07:00:59.922Z,102923.13
2022-10-19T07:03:27.752Z,102927.84
2022-10-19T07:05:55.942Z,102926.25
2022-10-19T07:08:23.146Z,102923.19
2022-10-19T07:10:54.595Z,102922.72
2022-10-19T07:13:20.974Z,102901.66
2022-10-19T07:15:47.401Z,102890.31
2022-10-19T07:18:14.208Z,102908.38
2022-10-19T07:20:40.555Z,102900.09
2022-10-19T07:23:06.923Z,102917.19
2022-10-19T07:25:33.710Z,102909.56
2022-10-19T07:28:00.029Z,102906.66
2022-10-19T07:30:26.344Z,102918.25
2022-10-19T07:32:52.573Z,102909.91
2022-10-19T07:35:18.903Z,102910.44
2022-10-19T07:37:45.294Z,102900.38
2022-10-19T07:40:12.490Z,102899.63
2022-10-19T07:42:38.826Z,102907.66
2022-10-19T07:45:05.559Z,102910.81
2022-10-19T07:47:32.169Z,102912.75
2022-10-19T07:49:58.829Z,102920.56
2022-10-19T07:52:25.161Z,102910.78
2022-10-19T07:54:51.450Z,102917.34
2022-10-19T07:57:18.086Z,102904.91
2022-10-19T07:59:44.385Z,102906.00
2022-10-19T08:02:16.159Z,102910.00
2022-10-19T08:04:59.605Z,102902.50
2022-10-19T08:07:28.299Z,102922.34
2022-10-19T08:09:54.732Z,102922.13
2022-10-19T08:12:21.154Z,102912.31
2022-10-19T08:14:47.478Z,102918.59
2022-10-19T08:17:13.772Z,102917.38
2022-10-19T08:19:40.192Z,102910.88
2022-10-19T08:22:06.537Z,102917.91
2022-10-19T08:24:32.893Z,102919.56
2022-10-19T08:26:59.260Z,102925.00
2022-10-19T08:29:27.777Z,102912.22
2022-10-19T08:31:56.960Z,102907.66
2022-10-19T08:34:23.309Z,102913.03
2022-10-19T08:36:49.611Z,102917.88
2022-10-19T08:39:15.959Z,102920.97
2022-10-19T08:41:57.389Z,102917.25
2022-10-19T08:45:16.452Z,102924.00
2022-10-19T08:48:10.073Z,102915.53
2022-10-19T08:50:39.404Z,102915.06
2022-10-19T08:53:15.181Z,102912.84
2022-10-19T08:55:52.113Z,102919.59
2022-10-19T08:58:40.516Z,102926.47
2022-10-19T09:01:16.613Z,102922.19
2022-10-19T09:03:56.509Z,102914.03
2022-10-19T09:06:47.941Z,102911.59
2022-10-19T09:09:15.186Z,102906.06
2022-10-19T09:11:48.778Z,102906.91
2022-10-19T09:14:21.067Z,102899.72
2022-10-19T09:16:47.603Z,102888.34
2022-10-19T09:19:26.418Z,102899.97
2022-10-19T09:22:05.852Z,102889.94
2022-10-19T09:24:54.388Z,102884.75
2022-10-19T09:27:23.817Z,102866.81
2022-10-19T09:29:57.203Z,102881.19
2022-10-19T09:32:39.327Z,102872.59
2022-10-19T09:35:18.212Z,102878.16
2022-10-19T09:37:48.359Z,102862.28
2022-10-19T09:40:18.387Z,102858.09
2022-10-19T09:42:44.764Z,102856.84
2022-10-19T09:45:31.491Z,102852.78
2022-10-19T09:48:08.705Z,102855.75
2022-10-19T09:50:43.290Z,102853.59
2022-10-19T09:53:18.211Z,102851.25
2022-10-19T09:56:06.573Z,102856.03
2022-10-19T09:58:33.979Z,102846.56
2022-10-19T10:01:02.762Z,102843.81
2022-10-19T10:03:31.986Z,102844.09
2022-10-19T10:06:03.777Z,102840.38
2022-10-19T10:08:37.691Z,102840.25
2022-10-19T10:11:09.550Z,102831.94
2022-10-19T10:13:41.575Z,102834.84
2022-10-19T10:16:21.434Z,102831.53
2022-10-19T10:18:58.944Z,102840.56
2022-10-19T10:21:26.682Z,102847.84
2022-10-19T10:24:15.879Z,102833.94
2022-10-19T10:26:47.998Z,102823.56
2022-10-19T10:29:31.897Z,102832.34
2022-10-19T10:32:08.675Z,102827.31
2022-10-19T10:34:45.914Z,102824.41
2022-10-19T10:37:28.062Z,102820.94
2022-10-19T10:39:58.978Z,102826.50
2022-10-19T10:42:36.590Z,102824.31
2022-10-19T10:45:04.636Z,102816.59
2022-10-19T10:47:31.278Z,102799.59
2022-10-19T10:50:02.840Z,102820.34
2022-10-19T10:52:30.471Z,102811.78
2022-10-19T10:55:17.824Z,102811.75
2022-10-19T10:57:52.453Z,102791.31
2022-10-19T11:00:22.783Z,102793.69
2022-10-19T11:03:21.842Z,102794.94
2022-10-19T11:05:54.563Z,102779.13
2022-10-19T11:08:24.092Z,102791.69
2022-10-19T11:11:12.316Z,102798.03
2022-10-19T11:14:04.824Z,102786.69
2022-10-19T11:16:40.422Z,102784.03
2022-10-19T11:19:24.275Z,102781.75
2022-10-19T11:22:09.084Z,102783.75
2022-10-19T11:24:48.860Z,102780.56
2022-10-19T11:27:49.162Z,102780.34
2022-10-19T11:30:19.473Z,102769.47
2022-10-19T11:33:04.702Z,102761.22
2022-10-19T11:35:44.290Z,102756.84
2022-10-19T11:38:32.233Z,102747.94
2022-10-19T11:41:21.413Z,102745.59
2022-10-19T11:44:26.253Z,102742.56
2022-10-19T11:47:30.198Z,102736.72
2022-10-19T11:53:01.837Z,102716.34
2022-10-19T11:55:40.644Z,102714.44
2022-10-19T11:58:52.159Z,102707.72
2022-10-19T12:01:24.041Z,102707.53
2022-10-19T12:03:56.488Z,102691.19
2022-10-19T12:06:52.084Z,102667.94
2022-10-19T12:09:40.046Z,102674.03
2022-10-19T12:12:22.766Z,102664.91
2022-10-19T12:14:54.368Z,102662.16
2022-10-19T12:17:26.687Z,102654.44
2022-10-19T12:20:01.417Z,102655.63
2022-10-19T12:22:30.113Z,102658.03
2022-10-19T12:24:59.979Z,102660.88
2022-10-19T12:27:38.302Z,102654.16
2022-10-19T12:30:09.355Z,102653.00
2022-10-19T12:32:43.950Z,102648.59
2022-10-19T12:35:28.510Z,102633.94
2022-10-19T12:37:58.551Z,102627.72
2022-10-19T12:40:36.154Z,102615.25
2022-10-19T12:43:05.448Z,102612.41
2022-10-19T12:45:38.986Z,102599.81
2022-10-19T12:48:08.045Z,102614.03
2022-10-19T12:50:49.412Z,102595.94
2022-10-19T12:53:28.224Z,102600.91
2022-10-19T12:56:09.611Z,102599.16
2022-10-19T12:58:46.578Z,102602.03
2022-10-19T13:01:41.600Z,102597.31
2022-10-19T13:04:15.606Z,102592.94
2022-10-19T13:06:48.119Z,102588.41
2022-10-19T13:09:40.132Z,102582.00
2022-10-19T13:12:19.396Z,102581.28
2022-10-19T13:15:01.391Z,102581.59
2022-10-19T13:17:36.576Z,102563.06
2022-10-19T13:20:15.083Z,102576.69
2022-10-19T13:23:01.258Z,102560.09
2022-10-19T13:25:34.514Z,102559.19
2022-10-19T13:28:06.834Z,102555.97
2022-10-19T13:30:36.194Z,102556.91
2022-10-19T13:33:24.214Z,102548.56
2022-10-19T13:35:59.804Z,102540.03
2022-10-19T13:39:01.213Z,102539.69
2022-10-19T13:41:44.467Z,102531.69
2022-10-19T13:44:10.729Z,102531.47
2022-10-19T13:46:51.238Z,102533.63
2022-10-19T13:49:17.530Z,102539.38
2022-10-19T13:52:07.983Z,102534.88
2022-10-19T13:55:15.366Z,102528.59
2022-10-19T13:58:05.416Z,102537.78
2022-10-19T14:00:34.504Z,102531.47
2022-10-19T14:03:21.491Z,102525.41
2022-10-19T14:06:10.099Z,102512.28
2022-10-19T14:08:48.431Z,102520.19
2022-10-19T14:11:19.117Z,102509.97
2022-10-19T14:13:46.502Z,102512.31
2022-10-19T14:16:21.208Z,102497.22
2022-10-19T14:18:55.514Z,102504.41
2022-10-19T14:21:35.186Z,102498.53
2022-10-19T14:24:01.577Z,102501.25
2022-10-19T14:26:29.563Z,102498.16
2022-10-19T14:28:57.966Z,102485.59
2022-10-19T14:31:31.251Z,102499.28
2022-10-19T14:34:01.820Z,102486.03
2022-10-19T14:36:34.458Z,102490.16
2022-10-19T14:39:00.815Z,102475.53
2022-10-19T14:41:27.135Z,102485.31
2022-10-19T14:43:55.362Z,102483.38
2022-10-19T14:46:25.078Z,102498.53
2022-10-19T14:48:51.434Z,102493.72
2022-10-19T14:51:32.882Z,102488.91
2022-10-19T14:54:08.652Z,102493.28
2022-10-19T14:56:55.953Z,102476.66
2022-10-19T14:59:47.006Z,102472.03
2022-10-19T15:02:25.890Z,102478.16
2022-10-19T15:04:54.956Z,102473.81
2022-10-19T15:07:26.570Z,102461.91
2022-10-19T15:09:57.494Z,102470.25
2022-10-19T15:12:28.891Z,102473.28
2022-10-19T15:14:57.222Z,102465.25
2022-10-19T15:17:30.029Z,102459.09
2022-10-19T15:19:58.367Z,102461.56
2022-10-19T15:22:33.795Z,102457.72
2022-10-19T15:25:00.299Z,102464.47
2022-10-19T15:27:41.110Z,102459.47
2022-10-19T15:30:24.530Z,102466.44
2022-10-19T15:33:15.014Z,102458.94
2022-10-19T15:35:44.405Z,102453.38
2022-10-19T15:38:13.469Z,102464.53
2022-10-19T15:40:42.523Z,102455.56
2022-10-19T15:43:31.309Z,102451.09
2022-10-19T15:46:12.988Z,102455.38
2022-10-19T15:48:42.349Z,102454.38
2022-10-19T15:51:23.758Z,102442.47
2022-10-19T15:53:56.238Z,102440.91
2022-10-19T15:56:24.752Z,102437.00
2022-10-19T15:58:53.105Z,102438.03
2022-10-19T16:01:22.345Z,102436.75
2022-10-19T16:03:49.368Z,102440.09
2022-10-19T16:06:16.881Z,102427.47
2022-10-19T16:08:43.987Z,102418.84
2022-10-19T16:11:15.213Z,102417.56
2022-10-19T16:13:41.893Z,102411.03
2022-10-19T16:16:12.223Z,102410.25
2022-10-19T16:18:38.619Z,102404.72
2022-10-19T16:21:05.477Z,102397.72
2022-10-19T16:23:31.882Z,102391.88
2022-10-19T16:25:58.206Z,102394.38
2022-10-19T16:28:24.505Z,102401.78
2022-10-19T16:30:54.693Z,102398.41
2022-10-19T16:33:21.062Z,102390.44
2022-10-19T16:35:47.374Z,102394.09
2022-10-19T16:38:13.707Z,102387.75
2022-10-19T16:40:40.032Z,102390.56
2022-10-19T16:43:06.400Z,102386.97
2022-10-19T16:45:32.731Z,102374.38
2022-10-19T16:47:59.042Z,102366.03
2022-10-19T16:50:25.382Z,102368.00
2022-10-19T16:53:04.674Z,102364.94
2022-10-19T16:55:30.994Z,102356.78
2022-10-19T16:57:57.340Z,102359.22
2022-10-19T17:00:23.713Z,102347.25
2022-10-19T17:02:50.059Z,102351.38
2022-10-19T17:05:16.373Z,102344.53
2022-10-19T17:07:42.685Z,102342.72
2022-10-19T17:10:09.620Z,102337.34
2022-10-19T17:12:36.305Z,102355.38
2022-10-19T17:15:37.241Z,102353.78
2022-10-19T17:17:49.485Z,102365.41
2022-10-19T17:20:15.909Z,102371.13
2022-10-19T17:22:42.202Z,102352.81
2022-10-19T17:25:09.326Z,102351.19
2022-10-19T17:27:35.631Z,102354.91
2022-10-19T17:30:01.925Z,102336.59
2022-10-19T17:32:28.265Z,102344.78
2022-10-19T17:34:54.582Z,102347.22
2022-10-19T17:37:20.918Z,102345.28
2022-10-19T17:39:50.563Z,102350.53
2022-10-19T17:42:16.945Z,102341.00
2022-10-19T17:44:43.252Z,102348.06
2022-10-19T17:47:09.591Z,102336.59
2022-10-19T17:49:36.850Z,102338.75
2022-10-19T17:52:03.199Z,102340.53
2022-10-19T17:54:29.528Z,102334.16
2022-10-19T17:56:55.871Z,102331.72
2022-10-19T17:59:30.192Z,102319.44
2022-10-19T18:02:01.454Z,102309.66
2022-10-19T18:04:27.829Z,102323.88
2022-10-19T18:06:54.204Z,102318.81
2022-10-19T18:09:20.494Z,102334.69
2022-10-19T18:11:46.841Z,102323.84
2022-10-19T18:14:13.480Z,102313.06
2022-10-19T18:16:42.795Z,102323.84
2022-10-19T18:19:09.170Z,102329.78
2022-10-19T18:21:39.886Z,102331.41
2022-10-19T18:24:11.281Z,102345.16
2022-10-19T18:26:40.699Z,102346.31
2022-10-19T18:29:13.391Z,102331.25
2022-10-19T18:31:40.296Z,102326.19
2022-10-19T18:34:07.990Z,102333.03
2022-10-19T18:36:34.674Z,102328.31
2022-10-19T18:39:03.442Z,102314.41
2022-10-19T18:41:30.114Z,102313.28
2022-10-19T18:43:59.307Z,102329.31
2022-10-19T18:46:26.214Z,102327.53
2022-10-19T18:48:52.641Z,102327.69
2022-10-19T18:51:20.168Z,102322.94
2022-10-19T18:53:47.634Z,102311.97
2022-10-19T18:56:16.700Z,102319.84
2022-10-19T18:58:43.672Z,102331.94
2022-10-19T19:01:11.541Z,102318.19
2022-10-19T19:03:40.502Z,102319.66
2022-10-19T19:06:09.972Z,102323.91
2022-10-19T19:08:36.423Z,102303.94
2022-10-19T19:11:35.924Z,102304.44
2022-10-19T19:14:07.135Z,102297.09
2022-10-19T19:16:36.375Z,102295.44
2022-10-19T19:19:03.359Z,102284.81
2022-10-19T19:21:33.778Z,102294.28
2022-10-19T19:24:01.943Z,102281.53
2022-10-19T19:26:32.860Z,102268.94
2022-10-19T19:28:59.542Z,102266.50
2022-10-19T19:31:26.466Z,102262.38
2022-10-19T19:33:57.522Z,102248.84
2022-10-19T19:36:23.835Z,102234.41
2022-10-19T19:38:50.167Z,102242.75
2022-10-19T19:41:16.506Z,102249.47
2022-10-19T19:43:43.518Z,102251.75
2022-10-19T19:46:15.909Z,102243.75
2022-10-19T19:48:45.066Z,102237.34
2022-10-19T19:51:17.277Z,102243.75
2022-10-19T19:53:43.628Z,102235.25
2022-10-19T19:56:11.916Z,102230.97
2022-10-19T19:58:40.385Z,102229.81
2022-10-19T20:01:14.173Z,102226.88
2022-10-19T20:03:41.617Z,102233.75
2022-10-19T20:06:08.817Z,102228.69
2022-10-19T20:08:35.245Z,102219.50
2022-10-19T20:11:07.865Z,102211.84
2022-10-19T20:13:34.959Z,102216.88
2022-10-19T20:16:15.462Z,102204.97
2022-10-19T20:18:44.294Z,102206.94
2022-10-19T20:21:10.735Z,102204.47
2022-10-19T20:23:37.131Z,102199.72
2022-10-19T20:26:03.451Z,102188.09
2022-10-19T20:28:32.061Z,102187.94
2022-10-19T20:31:06.600Z,102195.94
2022-10-19T20:33:34.681Z,102184.50
2022-10-19T20:36:08.118Z,102195.44
2022-10-19T20:38:35.837Z,102192.50
2022-10-19T20:41:08.247Z,102184.47
2022-10-19T20:43:36.654Z,102180.41
2022-10-19T20:46:14.909Z,102167.81
2022-10-19T20:48:41.456Z,102177.97
2022-10-19T20:51:19.585Z,102181.53
2022-10-19T20:53:48.166Z,102174.84
2022-10-19T20:56:17.636Z,102168.97
2022-10-19T20:58:44.695Z,102163.38
2022-10-19T21:01:17.447Z,102160.56
2022-10-19T21:03:49.285Z,102164.03
2022-10-19T21:06:15.716Z,102164.53
2022-10-19T21:08:42.549Z,102152.78
2022-10-19T21:11:29.638Z,102160.28
2022-10-19T21:13:58.150Z,102144.78
2022-10-19T21:16:25.814Z,102126.47
2022-10-19T21:18:52.154Z,102112.03
2022-10-19T21:21:24.397Z,102100.47
2022-10-19T21:23:51.636Z,102122.06
2022-10-19T21:26:17.974Z,102117.00
2022-10-19T21:28:49.517Z,102115.19
2022-10-19T21:31:17.236Z,102110.09
2022-10-19T21:33:44.050Z,102096.06
2022-10-19T21:36:11.615Z,102112.06
2022-10-19T21:38:38.490Z,102103.38
2022-10-19T21:41:13.639Z,102086.88
2022-10-19T21:43:40.235Z,102100.75
2022-10-19T21:46:08.521Z,102103.06
2022-10-19T21:48:35.018Z,102092.13
2022-10-19T21:51:32.051Z,102095.38
2022-10-19T21:53:58.800Z,102092.91
2022-10-19T21:56:25.632Z,102083.47
2022-10-19T21:58:53.331Z,102086.34
2022-10-19T22:01:24.869Z,102098.94
2022-10-19T22:03:58.471Z,102089.94
2022-10-19T22:06:27.317Z,102091.72
2022-10-19T22:08:54.617Z,102082.94
2022-10-19T22:11:22.155Z,102080.00
2022-10-19T22:13:48.562Z,102070.66
2022-10-19T22:16:20.057Z,102061.38
2022-10-19T22:18:47.485Z,102054.84
2022-10-19T22:21:16.586Z,102062.50
2022-10-19T22:23:42.941Z,102062.88
2022-10-19T22:26:14.497Z,102056.00
2022-10-19T22:28:40.902Z,102053.22
2022-10-19T22:31:07.297Z,102054.50
2022-10-19T22:33:34.811Z,102055.50
2022-10-19T22:36:02.413Z,102050.28
2022-10-19T22:38:28.947Z,102049.63
2022-10-19T22:41:32.754Z,102056.31
2022-10-19T22:43:59.116Z,102043.75
2022-10-19T22:46:25.451Z,102048.97
2022-10-19T22:48:51.774Z,102042.88
2022-10-19T22:51:18.056Z,102028.66
2022-10-19T22:53:44.354Z,102050.03
2022-10-19T22:56:12.223Z,102039.28
2022-10-19T22:58:38.933Z,102041.88
2022-10-19T23:01:10.862Z,102039.94
2022-10-19T23:03:37.830Z,102026.69
2022-10-19T23:06:04.137Z,102029.13
2022-10-19T23:08:30.543Z,102017.22
2022-10-19T23:10:56.878Z,102007.31
2022-10-19T23:13:24.023Z,102012.00
2022-10-19T23:15:50.436Z,102015.41
2022-10-19T23:18:16.864Z,102013.47
2022-10-19T23:20:43.192Z,101997.78
2022-10-19T23:23:09.670Z,102008.72
2022-10-19T23:25:35.981Z,102008.06
2022-10-19T23:28:02.309Z,102001.84
2022-10-19T23:30:28.603Z,101989.81
2022-10-19T23:32:54.914Z,101993.72
2022-10-19T23:35:21.243Z,101983.25
2022-10-19T23:37:47.589Z,101996.97
2022-10-19T23:40:13.938Z,101977.03
2022-10-19T23:42:40.256Z,101991.53
2022-10-19T23:45:07.093Z,101978.31
2022-10-19T23:47:33.659Z,101972.44
2022-10-19T23:50:00.106Z,101969.03
2022-10-19T23:52:26.419Z,101953.81
2022-10-19T23:54:52.656Z,101950.28
2022-10-19T23:57:18.971Z,101950.91
2022-10-19T23:59:45.269Z,101957.16
